Derby Field Lovelock US
ICAO: KLOL
IATA: LOL
Category: Medium
Scheduled Services: No

Elevation: 3904 ft
TransAlt. 18000 ft.

Airport Communications:
ASOS:120.675
OAKLAND CNTR:128.8
RENO RDO:122.4
CTAF/UNICOM:122.8

KLOL Zoom In..

Runways:

(A) RW 02 length 5529 ft width 75 ft
---- / hdg 16

(B) RW 08 length 4931 ft width 75 ft
---- / hdg 76

(C) RW 20 length 5529 ft width 75 ft
---- / hdg 196

(D) RW 26 length 4931 ft width 75 ft
---- / hdg 256

Location; KLOL
Day. 25 / Time. 09.53 Zulu
* Altimeter: 30.12
* Temperature: 06° c. 42.8°f.
* Wind from: 120° Speed 03 kn.
Dewpoint: -04° c.
Visibility: 10 Statute Miles.
Clouds: Clear (automated report).

KLOL 250953Z AUTO 12003KT 10SM CLR 06/M04 A3012 RMK AO2 SLP183 T00561039


Wind From 120°
Speed 03 kn.

  YouTube Music Video
 
jpsmedia.com for Web Design  worldairports.se 2018   terms of use